Time;durP1;ratioP1;P1;durP2;ratioP2;P2;SDS_P1;SDS_P2;PMS_P1;PMS_P2;Temp;Humidity;BMP_temperature;BMP_pressure;BME280_temperature;BME280_humidity;BME280_pressure;Samples;Min_cycle;Max_cycle;Signal;HPM_P1;HPM_P2
2022/04/01 00:00:28;;;;;;;;;;;5.20;99.90;;;;;;5042272;28;20263;-70
2022/04/01 00:02:55;;;;;;;;;;;5.20;99.90;;;;;;5044198;28;19927;-70
2022/04/01 00:05:21;;;;;;;;;;;5.30;99.90;;;;;;5043468;28;19933;-70
2022/04/01 00:07:48;;;;;;;;;;;5.30;99.90;;;;;;5043779;28;19921;-70
2022/04/01 00:10:15;;;;;;;;;;;5.30;99.90;;;;;;5044437;28;19928;-70
2022/04/01 00:12:42;;;;;;;;;;;5.30;99.90;;;;;;5044082;28;19922;-70
2022/04/01 00:15:09;;;;;;;;;;;5.20;99.90;;;;;;5043767;28;19999;-70
2022/04/01 00:17:36;;;;;;;;;;;5.10;99.90;;;;;;5043522;28;19947;-70
2022/04/01 00:20:04;;;;;;;;;;;5.10;99.90;;;;;;5043814;28;19921;-70
2022/04/01 00:22:30;;;;;;;;;;;5.00;99.90;;;;;;5044009;28;19945;-70
2022/04/01 00:24:57;;;;;;;;;;;4.80;99.90;;;;;;5043983;28;20232;-70
2022/04/01 00:27:24;;;;;;;;;;;4.80;99.90;;;;;;5043294;28;20116;-70
2022/04/01 00:29:50;;;;;;;;;;;4.70;99.90;;;;;;5043741;28;19921;-70
2022/04/01 00:32:17;;;;;;;;;;;4.80;99.90;;;;;;5043415;28;20208;-70
2022/04/01 00:34:45;;;;;;;;;;;4.80;99.90;;;;;;5042748;28;20120;-70
2022/04/01 00:37:12;;;;;;;;;;;4.80;99.90;;;;;;5042023;28;19936;-71
2022/04/01 00:39:39;;;;;;;;;;;4.80;99.90;;;;;;5044054;28;19921;-69
2022/04/01 00:42:06;;;;;;;;;;;4.80;99.90;;;;;;5043277;28;19940;-71
2022/04/01 00:44:33;;;;;;;;;;;4.80;99.90;;;;;;5043594;28;19921;-70
2022/04/01 00:47:00;;;;;;;;;;;4.80;99.90;;;;;;5043002;28;19921;-70
2022/04/01 00:49:28;;;;;;;;;;;4.80;99.90;;;;;;5043375;28;19974;-71
2022/04/01 00:51:57;;;;;;;;;;;4.80;99.90;;;;;;5052296;23;19929;-92
2022/04/01 00:54:25;;;;;;;;;;;4.80;99.90;;;;;;5024500;28;19969;-94
2022/04/01 00:56:52;;;;;;;;;;;4.70;99.90;;;;;;5030224;28;19921;-93
2022/04/01 00:59:19;;;;;;;;;;;4.70;99.90;;;;;;5030867;28;19925;-93
2022/04/01 01:01:47;;;;;;;;;;;4.70;99.90;;;;;;5029933;28;19921;-93
2022/04/01 01:04:14;;;;;;;;;;;4.70;99.90;;;;;;5027950;28;19937;-93
2022/04/01 01:06:43;;;;;;;;;;;4.70;99.90;;;;;;5040270;22;19930;-70
2022/04/01 01:09:11;;;;;;;;;;;4.60;99.90;;;;;;5036070;28;19921;-70
2022/04/01 01:11:38;;;;;;;;;;;4.60;99.90;;;;;;5026928;28;19928;-70
2022/04/01 01:14:07;;;;;;;;;;;4.60;99.90;;;;;;5030832;28;20210;-70
2022/04/01 01:16:34;;;;;;;;;;;4.60;99.90;;;;;;5031330;28;19928;-69
2022/04/01 01:19:03;;;;;;;;;;;4.60;99.90;;;;;;5024630;28;20213;-70
2022/04/01 01:21:30;;;;;;;;;;;4.70;99.90;;;;;;5029126;28;19944;-70
2022/04/01 01:24:00;;;;;;;;;;;4.60;99.90;;;;;;5043290;28;19927;-70
2022/04/01 01:26:28;;;;;;;;;;;4.60;99.90;;;;;;5028546;28;19968;-70
2022/04/01 01:28:56;;;;;;;;;;;4.60;99.90;;;;;;5023363;28;20228;-70
2022/04/01 01:31:23;;;;;;;;;;;4.50;99.90;;;;;;5028157;28;19935;-70
2022/04/01 01:33:50;;;;;;;;;;;4.50;99.90;;;;;;5023256;28;19928;-70
2022/04/01 01:36:17;;;;;;;;;;;4.40;99.90;;;;;;5028648;28;19921;-70
2022/04/01 01:38:44;;;;;;;;;;;4.30;99.90;;;;;;5037280;28;19928;-70
2022/04/01 01:41:11;;;;;;;;;;;4.30;99.90;;;;;;5042702;28;19921;-69
2022/04/01 01:43:39;;;;;;;;;;;4.30;99.90;;;;;;5026734;28;20212;-70
2022/04/01 01:46:05;;;;;;;;;;;4.30;99.90;;;;;;5032829;28;19921;-70
2022/04/01 01:48:32;;;;;;;;;;;4.30;99.90;;;;;;5040931;28;19928;-70
2022/04/01 01:56:27;;;;;;;;;;;4.30;99.90;;;;;;5026351;28;20197;-69
2022/04/01 01:58:55;;;;;;;;;;;4.30;99.90;;;;;;5023356;28;19944;-70
2022/04/01 02:01:22;;;;;;;;;;;4.30;99.90;;;;;;5023015;28;19930;-70
2022/04/01 02:03:49;;;;;;;;;;;4.30;99.90;;;;;;5022759;28;19921;-70
2022/04/01 02:06:15;;;;;;;;;;;4.20;99.90;;;;;;5023407;28;19929;-70
2022/04/01 02:08:42;;;;;;;;;;;4.20;99.90;;;;;;5022461;28;19921;-70
2022/04/01 02:11:09;;;;;;;;;;;4.20;99.90;;;;;;5023075;28;19922;-70
2022/04/01 02:13:35;;;;;;;;;;;4.20;99.90;;;;;;5036786;28;19928;-70
2022/04/01 02:16:03;;;;;;;;;;;4.10;99.90;;;;;;5026113;28;19968;-70
2022/04/01 02:18:30;;;;;;;;;;;4.10;99.90;;;;;;5030472;28;19922;-70
2022/04/01 02:20:57;;;;;;;;;;;4.10;99.90;;;;;;5024111;28;19921;-70
2022/04/01 02:23:24;;;;;;;;;;;4.10;99.90;;;;;;5040520;28;19929;-70
2022/04/01 02:25:51;;;;;;;;;;;4.10;99.90;;;;;;5029204;28;20139;-71
2022/04/01 02:28:18;;;;;;;;;;;4.10;99.90;;;;;;5026095;28;20220;-69
2022/04/01 02:30:45;;;;;;;;;;;4.10;99.90;;;;;;5033718;28;19921;-70
2022/04/01 02:33:14;;;;;;;;;;;4.00;99.90;;;;;;5033273;28;19938;-70
2022/04/01 02:35:42;;;;;;;;;;;4.00;99.90;;;;;;5021808;28;19922;-70
2022/04/01 02:38:09;;;;;;;;;;;4.00;99.90;;;;;;5022991;28;19936;-70
2022/04/01 02:40:36;;;;;;;;;;;4.00;99.90;;;;;;5030260;28;19928;-70
2022/04/01 02:43:03;;;;;;;;;;;4.00;99.90;;;;;;5025522;28;19952;-70
2022/04/01 02:45:30;;;;;;;;;;;3.90;99.90;;;;;;5025940;28;19922;-70
2022/04/01 02:47:56;;;;;;;;;;;3.90;99.90;;;;;;5026433;28;19927;-70
2022/04/01 02:50:26;;;;;;;;;;;3.90;99.90;;;;;;5037588;28;20204;-70
2022/04/01 02:52:52;;;;;;;;;;;3.90;99.90;;;;;;5032499;28;19980;-71
2022/04/01 02:55:19;;;;;;;;;;;3.90;99.90;;;;;;5026389;28;19921;-69
2022/04/01 02:57:47;;;;;;;;;;;3.90;99.90;;;;;;5026193;28;19928;-70
2022/04/01 03:00:21;;;;;;;;;;;3.90;99.90;;;;;;5029526;28;20156;-70
2022/04/01 03:02:48;;;;;;;;;;;3.80;99.90;;;;;;5032225;28;19980;-70
2022/04/01 03:05:15;;;;;;;;;;;3.80;99.90;;;;;;5042978;28;19963;-69
2022/04/01 03:07:43;;;;;;;;;;;3.70;99.90;;;;;;5025996;28;19921;-70
2022/04/01 03:10:10;;;;;;;;;;;3.60;99.90;;;;;;5028630;28;19967;-70
2022/04/01 03:12:37;;;;;;;;;;;3.60;99.90;;;;;;5030924;28;19928;-70
2022/04/01 03:15:05;;;;;;;;;;;3.50;99.90;;;;;;5036349;28;19964;-71
2022/04/01 03:17:32;;;;;;;;;;;3.50;99.90;;;;;;5029800;28;19925;-69
2022/04/01 03:20:02;;;;;;;;;;;3.50;99.90;;;;;;5026978;28;20173;-70
2022/04/01 03:22:30;;;;;;;;;;;3.50;99.90;;;;;;5045280;28;19984;-70
2022/04/01 03:24:57;;;;;;;;;;;3.50;99.90;;;;;;5044718;28;19921;-71
2022/04/01 03:27:24;;;;;;;;;;;3.50;99.90;;;;;;5027086;28;19921;-70
2022/04/01 03:29:51;;;;;;;;;;;3.40;99.90;;;;;;5025107;28;19928;-70
2022/04/01 03:32:17;;;;;;;;;;;3.40;99.90;;;;;;5009703;28;19921;-71
2022/04/01 03:34:44;;;;;;;;;;;3.40;99.90;;;;;;5025143;28;19933;-70
2022/04/01 03:37:10;;;;;;;;;;;3.40;99.90;;;;;;5027194;28;19922;-71
2022/04/01 03:39:37;;;;;;;;;;;3.40;99.90;;;;;;5027297;28;19921;-70
2022/04/01 03:42:07;;;;;;;;;;;3.30;99.90;;;;;;5024932;28;20248;-71
2022/04/01 03:44:36;;;;;;;;;;;3.30;99.90;;;;;;5032060;28;19921;-71
2022/04/01 03:47:05;;;;;;;;;;;3.20;99.90;;;;;;5032899;28;19921;-71
2022/04/01 03:49:32;;;;;;;;;;;3.10;99.90;;;;;;5041056;28;19980;-70
2022/04/01 03:51:59;;;;;;;;;;;3.10;99.90;;;;;;5039262;28;20112;-70
2022/04/01 03:54:26;;;;;;;;;;;3.10;99.90;;;;;;5005990;28;19925;-71
2022/04/01 03:56:57;;;;;;;;;;;3.00;99.90;;;;;;5042515;28;20104;-70
2022/04/01 03:59:26;;;;;;;;;;;3.00;99.90;;;;;;5028476;28;19922;-70
2022/04/01 04:01:53;;;;;;;;;;;2.90;99.90;;;;;;5025235;28;19929;-70
2022/04/01 04:04:20;;;;;;;;;;;2.90;99.90;;;;;;5027169;28;20090;-70
2022/04/01 04:06:48;;;;;;;;;;;2.80;99.90;;;;;;5024563;28;20112;-70
2022/04/01 04:09:15;;;;;;;;;;;2.80;99.90;;;;;;5024849;28;19928;-70
2022/04/01 04:11:42;;;;;;;;;;;2.80;99.90;;;;;;5024362;28;19925;-70
2022/04/01 04:14:09;;;;;;;;;;;2.80;99.90;;;;;;5039809;28;19921;-69
2022/04/01 04:16:40;;;;;;;;;;;2.70;99.90;;;;;;5023840;28;19928;-70
2022/04/01 04:19:08;;;;;;;;;;;2.70;99.90;;;;;;5033339;28;20123;-70
2022/04/01 04:21:39;;;;;;;;;;;2.70;99.90;;;;;;5036307;28;19929;-71
2022/04/01 04:24:06;;;;;;;;;;;2.70;99.90;;;;;;5009949;28;19925;-71
2022/04/01 04:26:35;;;;;;;;;;;2.60;99.90;;;;;;5023195;28;19921;-70
2022/04/01 04:29:03;;;;;;;;;;;2.50;99.90;;;;;;5030815;28;19922;-71
2022/04/01 04:31:31;;;;;;;;;;;2.50;99.90;;;;;;5036816;28;19959;-71
2022/04/01 04:33:59;;;;;;;;;;;2.50;99.90;;;;;;5024364;28;19921;-70
2022/04/01 04:36:28;;;;;;;;;;;2.40;99.90;;;;;;5029279;28;19922;-71
2022/04/01 04:38:55;;;;;;;;;;;2.50;99.90;;;;;;5023680;28;19922;-70
2022/04/01 04:41:22;;;;;;;;;;;2.50;99.90;;;;;;5024500;28;19988;-70
2022/04/01 04:43:51;;;;;;;;;;;2.50;99.90;;;;;;5025736;28;19921;-71
2022/04/01 04:46:19;;;;;;;;;;;2.50;99.90;;;;;;5031075;28;20289;-71
2022/04/01 04:48:47;;;;;;;;;;;2.50;99.90;;;;;;5025075;28;19928;-70
2022/04/01 04:51:16;;;;;;;;;;;2.40;99.90;;;;;;5006699;28;19922;-69
2022/04/01 04:53:44;;;;;;;;;;;2.40;99.90;;;;;;5016210;28;20213;-71
2022/04/01 04:56:11;;;;;;;;;;;2.30;99.90;;;;;;5026950;28;19921;-72
2022/04/01 04:58:40;;;;;;;;;;;2.30;99.90;;;;;;5022417;28;19930;-72
2022/04/01 05:01:15;;;;;;;;;;;2.30;99.90;;;;;;5024742;28;19921;-70
2022/04/01 05:03:48;;;;;;;;;;;2.30;99.90;;;;;;5035876;28;20101;-71
2022/04/01 05:06:19;;;;;;;;;;;2.30;99.90;;;;;;5041887;28;19921;-75
2022/04/01 05:08:51;;;;;;;;;;;2.20;99.90;;;;;;5026824;28;19921;-70
2022/04/01 05:11:22;;;;;;;;;;;2.20;99.90;;;;;;5021345;28;19927;-70
2022/04/01 05:13:55;;;;;;;;;;;2.20;99.90;;;;;;5023763;28;20267;-70
2022/04/01 05:16:25;;;;;;;;;;;2.10;99.90;;;;;;5021251;28;19952;-70
2022/04/01 05:19:02;;;;;;;;;;;2.10;99.90;;;;;;5027644;28;19928;-70
2022/04/01 05:21:39;;;;;;;;;;;2.10;99.90;;;;;;5026479;28;19984;-70
2022/04/01 05:24:07;;;;;;;;;;;2.10;99.90;;;;;;5025495;28;19922;-70
2022/04/01 05:26:40;;;;;;;;;;;2.10;99.90;;;;;;5029458;28;19921;-70
2022/04/01 05:29:10;;;;;;;;;;;2.10;99.90;;;;;;5041715;28;19944;-70
2022/04/01 05:31:37;;;;;;;;;;;2.10;99.90;;;;;;5043478;28;19928;-70
2022/04/01 05:34:07;;;;;;;;;;;2.10;99.90;;;;;;5024096;28;19925;-71
2022/04/01 05:36:37;;;;;;;;;;;2.10;99.90;;;;;;5022741;28;20209;-70
2022/04/01 05:39:04;;;;;;;;;;;2.10;99.90;;;;;;5023349;28;19925;-69
2022/04/01 05:41:31;;;;;;;;;;;2.10;99.90;;;;;;5027256;28;19943;-68
2022/04/01 05:43:58;;;;;;;;;;;2.00;99.90;;;;;;5025319;28;20113;-69
2022/04/01 05:46:26;;;;;;;;;;;2.00;99.90;;;;;;5021770;28;19921;-71
2022/04/01 05:48:53;;;;;;;;;;;2.00;99.90;;;;;;5024987;28;19928;-69
2022/04/01 05:51:20;;;;;;;;;;;2.00;99.90;;;;;;5020508;28;19922;-69
2022/04/01 05:53:48;;;;;;;;;;;2.10;99.90;;;;;;5039305;28;19921;-69
2022/04/01 05:56:15;;;;;;;;;;;2.00;99.90;;;;;;5031186;28;19929;-69
2022/04/01 05:58:43;;;;;;;;;;;2.00;99.90;;;;;;5021635;28;19922;-68
2022/04/01 06:01:12;;;;;;;;;;;2.10;99.90;;;;;;5032454;28;19921;-69
2022/04/01 06:04:00;;;;;;;;;;;2.00;99.90;;;;;;5023771;28;20236;-69
2022/04/01 06:06:29;;;;;;;;;;;2.10;99.90;;;;;;5025536;28;19929;-69
2022/04/01 06:09:02;;;;;;;;;;;2.00;99.90;;;;;;5028666;28;19921;-69
2022/04/01 06:11:36;;;;;;;;;;;2.00;99.90;;;;;;5022965;28;20217;-69
2022/04/01 06:14:07;;;;;;;;;;;2.10;99.90;;;;;;5030826;28;20132;-69
2022/04/01 06:16:37;;;;;;;;;;;2.10;99.90;;;;;;5031078;28;20220;-69
2022/04/01 06:19:10;;;;;;;;;;;2.10;99.90;;;;;;5033417;28;19921;-68
2022/04/01 06:21:37;;;;;;;;;;;2.10;99.90;;;;;;5027078;28;20120;-70
2022/04/01 06:24:09;;;;;;;;;;;2.10;99.90;;;;;;5026891;28;19921;-69
2022/04/01 06:26:39;;;;;;;;;;;2.10;99.90;;;;;;5020776;28;19983;-69
2022/04/01 06:29:11;;;;;;;;;;;2.00;99.90;;;;;;5026421;28;19922;-69
2022/04/01 06:31:40;;;;;;;;;;;2.10;99.90;;;;;;5026458;28;19922;-69
2022/04/01 06:34:12;;;;;;;;;;;2.10;99.90;;;;;;5045546;28;19925;-69
2022/04/01 06:36:40;;;;;;;;;;;2.10;99.90;;;;;;5043482;28;19982;-69
2022/04/01 06:39:07;;;;;;;;;;;2.10;99.90;;;;;;5025557;28;19928;-70
2022/04/01 06:41:42;;;;;;;;;;;2.10;99.90;;;;;;5025690;28;19921;-68
2022/04/01 06:44:09;;;;;;;;;;;2.10;99.90;;;;;;5029198;28;19921;-69
2022/04/01 06:46:35;;;;;;;;;;;2.10;99.90;;;;;;5027298;28;20144;-69
2022/04/01 06:49:07;;;;;;;;;;;2.10;99.90;;;;;;5026722;28;19929;-69
2022/04/01 06:51:35;;;;;;;;;;;2.10;99.90;;;;;;5023483;28;19928;-69
2022/04/01 06:54:01;;;;;;;;;;;2.20;99.90;;;;;;5048862;22;20119;-70
2022/04/01 06:56:28;;;;;;;;;;;2.10;99.90;;;;;;5044532;28;19929;-70
2022/04/01 06:58:56;;;;;;;;;;;2.10;99.90;;;;;;5045165;28;19927;-70
2022/04/01 07:01:23;;;;;;;;;;;2.20;99.90;;;;;;5042806;28;19921;-70
2022/04/01 07:03:49;;;;;;;;;;;2.20;99.90;;;;;;5045473;28;19921;-70
2022/04/01 07:06:16;;;;;;;;;;;2.20;99.90;;;;;;5042581;28;19921;-70
2022/04/01 07:08:43;;;;;;;;;;;2.20;99.90;;;;;;5041129;28;19921;-71
2022/04/01 07:11:09;;;;;;;;;;;2.30;99.90;;;;;;5043091;28;19967;-70
2022/04/01 07:13:37;;;;;;;;;;;2.20;99.90;;;;;;5045157;28;19921;-70
2022/04/01 07:16:06;;;;;;;;;;;2.30;99.90;;;;;;5043990;28;19921;-70
2022/04/01 07:18:33;;;;;;;;;;;2.30;99.90;;;;;;5043304;28;19944;-70
2022/04/01 07:21:00;;;;;;;;;;;2.30;99.90;;;;;;5042340;28;19928;-70
2022/04/01 07:23:28;;;;;;;;;;;2.30;99.90;;;;;;5045027;28;19921;-70
2022/04/01 07:25:54;;;;;;;;;;;2.20;99.90;;;;;;5041768;28;19944;-70
2022/04/01 07:28:21;;;;;;;;;;;2.30;99.90;;;;;;5044576;28;19921;-70
2022/04/01 07:30:48;;;;;;;;;;;2.30;99.90;;;;;;5045188;28;20096;-70
2022/04/01 07:33:16;;;;;;;;;;;2.30;99.90;;;;;;5044719;28;19984;-70
2022/04/01 07:35:44;;;;;;;;;;;2.20;99.90;;;;;;5043915;28;19928;-71
2022/04/01 07:38:11;;;;;;;;;;;2.20;99.90;;;;;;5045032;28;19921;-70
2022/04/01 07:40:38;;;;;;;;;;;2.20;99.90;;;;;;5045002;28;19921;-70
2022/04/01 07:43:04;;;;;;;;;;;2.20;99.90;;;;;;5045022;28;19921;-70
2022/04/01 07:45:33;;;;;;;;;;;2.20;99.90;;;;;;5044216;28;19921;-70
2022/04/01 07:48:00;;;;;;;;;;;2.20;99.90;;;;;;5045113;28;20165;-70
2022/04/01 07:50:29;;;;;;;;;;;2.20;99.90;;;;;;5044423;28;19959;-71
2022/04/01 07:52:55;;;;;;;;;;;2.20;99.90;;;;;;5044489;28;19921;-70
2022/04/01 07:55:22;;;;;;;;;;;2.30;99.90;;;;;;5043925;28;20243;-70
2022/04/01 07:57:50;;;;;;;;;;;2.30;99.90;;;;;;5044737;28;19971;-70
2022/04/01 08:00:17;;;;;;;;;;;2.30;99.90;;;;;;5044521;28;19969;-70
2022/04/01 08:02:44;;;;;;;;;;;2.20;99.90;;;;;;5044563;28;19929;-70
2022/04/01 08:05:11;;;;;;;;;;;2.20;99.90;;;;;;5044283;28;19928;-73
2022/04/01 08:07:46;;;;;;;;;;;2.20;99.90;;;;;;5041923;28;19928;-71
2022/04/01 08:10:19;;;;;;;;;;;2.20;99.90;;;;;;5042683;28;19936;-70
2022/04/01 08:12:46;;;;;;;;;;;2.30;99.90;;;;;;5045290;28;19928;-71
2022/04/01 08:15:19;;;;;;;;;;;2.30;99.90;;;;;;5043860;28;19921;-71
2022/04/01 08:17:46;;;;;;;;;;;2.20;99.90;;;;;;5041803;28;19921;-70
2022/04/01 08:20:13;;;;;;;;;;;2.20;99.90;;;;;;5045050;28;19921;-70
2022/04/01 08:22:40;;;;;;;;;;;2.20;99.90;;;;;;5044804;28;19921;-70
2022/04/01 08:25:09;;;;;;;;;;;2.10;99.90;;;;;;5042342;28;20022;-71
2022/04/01 08:27:35;;;;;;;;;;;2.10;99.90;;;;;;5044254;28;19928;-72
2022/04/01 08:30:02;;;;;;;;;;;2.10;99.90;;;;;;5044769;28;19924;-71
2022/04/01 08:32:30;;;;;;;;;;;2.20;99.90;;;;;;5044236;28;20208;-71
2022/04/01 08:34:56;;;;;;;;;;;2.20;99.90;;;;;;5044441;28;20259;-71
2022/04/01 08:37:23;;;;;;;;;;;2.20;99.90;;;;;;5043950;28;19921;-70
2022/04/01 08:39:50;;;;;;;;;;;2.20;99.90;;;;;;5044638;28;19921;-71
2022/04/01 08:42:17;;;;;;;;;;;2.20;99.90;;;;;;5044175;28;20177;-71
2022/04/01 08:44:45;;;;;;;;;;;2.20;99.90;;;;;;5043904;28;19921;-71
2022/04/01 08:47:12;;;;;;;;;;;2.20;99.90;;;;;;5043342;28;19927;-71
2022/04/01 08:49:38;;;;;;;;;;;2.20;99.90;;;;;;5041498;28;19921;-71
2022/04/01 08:52:05;;;;;;;;;;;2.30;99.90;;;;;;5043645;28;19944;-71
2022/04/01 08:54:33;;;;;;;;;;;2.20;99.90;;;;;;5043730;28;19952;-71
2022/04/01 08:56:59;;;;;;;;;;;2.30;99.90;;;;;;5042671;28;20238;-71
2022/04/01 08:59:28;;;;;;;;;;;2.40;99.90;;;;;;5041249;28;19921;-71
2022/04/01 09:02:02;;;;;;;;;;;2.40;99.90;;;;;;5043617;28;20116;-71
2022/04/01 09:04:28;;;;;;;;;;;2.40;99.90;;;;;;5043577;28;20216;-71
2022/04/01 09:06:55;;;;;;;;;;;2.50;99.90;;;;;;5042940;28;20208;-71
2022/04/01 09:09:25;;;;;;;;;;;2.50;99.90;;;;;;5042530;28;20281;-71
2022/04/01 09:12:05;;;;;;;;;;;2.50;99.90;;;;;;5037794;28;19988;-69
2022/04/01 09:14:33;;;;;;;;;;;2.40;99.90;;;;;;5042890;28;19925;-69
2022/04/01 09:17:00;;;;;;;;;;;2.50;99.90;;;;;;5041809;28;19921;-71
2022/04/01 09:19:31;;;;;;;;;;;2.60;99.90;;;;;;5041880;28;19968;-70
2022/04/01 09:21:58;;;;;;;;;;;2.60;99.90;;;;;;5041862;28;20208;-71
2022/04/01 09:24:25;;;;;;;;;;;2.60;99.90;;;;;;5040630;28;19929;-71
2022/04/01 09:26:54;;;;;;;;;;;2.60;99.90;;;;;;5041902;28;19921;-71
2022/04/01 09:29:21;;;;;;;;;;;2.70;99.90;;;;;;5043320;28;19921;-71
2022/04/01 09:31:52;;;;;;;;;;;2.70;99.90;;;;;;5043010;28;19921;-71
2022/04/01 09:34:19;;;;;;;;;;;2.70;99.90;;;;;;5043496;28;19943;-71
2022/04/01 09:36:45;;;;;;;;;;;2.70;99.90;;;;;;5042127;28;19925;-71
2022/04/01 09:39:13;;;;;;;;;;;2.60;99.90;;;;;;5042978;28;19928;-71
2022/04/01 09:41:41;;;;;;;;;;;2.50;99.90;;;;;;5043398;28;19921;-71
2022/04/01 09:44:09;;;;;;;;;;;2.50;99.90;;;;;;5042779;28;19921;-71
2022/04/01 09:46:40;;;;;;;;;;;2.50;99.90;;;;;;5042365;28;20076;-70
2022/04/01 09:49:09;;;;;;;;;;;2.50;99.90;;;;;;5043203;28;19921;-71
2022/04/01 09:51:35;;;;;;;;;;;2.60;99.90;;;;;;5043677;28;19921;-71
2022/04/01 09:54:03;;;;;;;;;;;2.60;99.90;;;;;;5046840;28;19921;-71
2022/04/01 09:56:36;;;;;;;;;;;2.70;99.90;;;;;;5046495;28;19964;-71
2022/04/01 09:59:04;;;;;;;;;;;2.60;99.90;;;;;;5046976;28;19928;-71
2022/04/01 10:01:31;;;;;;;;;;;2.60;99.90;;;;;;5046896;28;19921;-72
2022/04/01 10:03:58;;;;;;;;;;;2.60;99.90;;;;;;5046934;28;19928;-71
2022/04/01 10:06:26;;;;;;;;;;;2.60;99.90;;;;;;5045260;28;19956;-75
2022/04/01 10:08:53;;;;;;;;;;;2.70;99.90;;;;;;5043066;28;19928;-71
2022/04/01 10:11:22;;;;;;;;;;;2.60;99.90;;;;;;5040142;28;20810;-71
2022/04/01 10:13:49;;;;;;;;;;;2.60;99.90;;;;;;5042924;28;19929;-71
2022/04/01 10:16:16;;;;;;;;;;;2.60;99.90;;;;;;5044294;28;19921;-71
2022/04/01 10:18:43;;;;;;;;;;;2.50;99.90;;;;;;5046121;28;19937;-71
2022/04/01 10:21:10;;;;;;;;;;;2.50;99.90;;;;;;5044973;28;20115;-71
2022/04/01 10:23:43;;;;;;;;;;;2.50;99.90;;;;;;5045945;28;19995;-71
2022/04/01 10:26:13;;;;;;;;;;;2.50;99.90;;;;;;5043757;28;19928;-72
2022/04/01 10:28:40;;;;;;;;;;;2.50;99.90;;;;;;5037922;28;19921;-72
2022/04/01 10:31:13;;;;;;;;;;;2.60;99.90;;;;;;5046317;28;19921;-72
2022/04/01 10:33:39;;;;;;;;;;;2.60;99.90;;;;;;5039370;28;19921;-71
2022/04/01 10:36:14;;;;;;;;;;;2.60;99.90;;;;;;5045272;28;19948;-72
2022/04/01 10:38:42;;;;;;;;;;;2.60;99.90;;;;;;5031453;28;20216;-72
2022/04/01 10:41:11;;;;;;;;;;;2.60;99.90;;;;;;5045907;28;19928;-72
2022/04/01 10:43:40;;;;;;;;;;;2.50;99.90;;;;;;5045740;28;20004;-71
2022/04/01 10:46:07;;;;;;;;;;;2.50;99.90;;;;;;5044415;28;20108;-71
2022/04/01 10:51:37;;;;;;;;;;;2.50;99.90;;;;;;5046151;28;19956;-73
2022/04/01 10:54:26;;;;;;;;;;;2.50;99.90;;;;;;5045226;28;19927;-71
2022/04/01 10:56:56;;;;;;;;;;;2.50;99.90;;;;;;5043054;28;19967;-71
2022/04/01 10:59:23;;;;;;;;;;;2.50;99.90;;;;;;5045871;28;19928;-71
2022/04/01 11:02:05;;;;;;;;;;;2.20;99.90;;;;;;5045602;28;20179;-70
2022/04/01 11:04:33;;;;;;;;;;;2.20;99.90;;;;;;5025180;28;20228;-70
2022/04/01 11:07:01;;;;;;;;;;;2.00;99.90;;;;;;5044945;28;20000;-70
2022/04/01 11:09:41;;;;;;;;;;;2.10;99.90;;;;;;5043533;28;20107;-72
2022/04/01 11:12:25;;;;;;;;;;;2.10;99.90;;;;;;5042924;28;19921;-70
2022/04/01 11:15:11;;;;;;;;;;;2.00;99.90;;;;;;5045811;28;19967;-71
2022/04/01 11:17:57;;;;;;;;;;;1.90;99.90;;;;;;5044966;28;19972;-70
2022/04/01 11:20:26;;;;;;;;;;;1.90;99.90;;;;;;5045678;28;19921;-71
2022/04/01 11:23:00;;;;;;;;;;;1.90;99.90;;;;;;5041092;28;19984;-70
2022/04/01 11:25:51;;;;;;;;;;;1.90;99.90;;;;;;5041811;28;20147;-71
2022/04/01 11:28:17;;;;;;;;;;;1.90;99.90;;;;;;5045467;28;19921;-71
2022/04/01 11:30:45;;;;;;;;;;;1.90;99.90;;;;;;5044975;28;19928;-70
2022/04/01 11:33:13;;;;;;;;;;;1.90;99.90;;;;;;5044868;28;19948;-71
2022/04/01 11:35:40;;;;;;;;;;;1.80;99.90;;;;;;5040962;28;19939;-71
2022/04/01 11:38:07;;;;;;;;;;;1.80;99.90;;;;;;5033840;28;19921;-70
2022/04/01 11:40:34;;;;;;;;;;;1.90;99.90;;;;;;5037636;28;20201;-71
2022/04/01 11:43:04;;;;;;;;;;;1.90;99.90;;;;;;5044274;28;19925;-72
2022/04/01 11:45:32;;;;;;;;;;;1.80;99.90;;;;;;5044130;28;20076;-72
2022/04/01 11:47:58;;;;;;;;;;;1.70;99.90;;;;;;5044986;28;19929;-72
2022/04/01 11:50:25;;;;;;;;;;;1.60;99.90;;;;;;5044520;28;20235;-72
2022/04/01 11:52:53;;;;;;;;;;;1.70;99.90;;;;;;5037623;28;20310;-72
2022/04/01 11:55:21;;;;;;;;;;;1.70;99.90;;;;;;5035343;28;19921;-72
2022/04/01 11:57:48;;;;;;;;;;;1.70;99.90;;;;;;5041293;28;19928;-72
2022/04/01 12:00:17;;;;;;;;;;;1.70;99.90;;;;;;5043945;28;20116;-72
2022/04/01 12:02:44;;;;;;;;;;;1.70;99.90;;;;;;5044290;28;20139;-72
2022/04/01 12:05:11;;;;;;;;;;;1.70;99.90;;;;;;5041789;28;20137;-72
2022/04/01 12:10:23;;;;;;;;;;;1.80;99.90;;;;;;5043321;28;19923;-70
2022/04/01 12:12:54;;;;;;;;;;;1.70;99.90;;;;;;5043034;28;19929;-72
2022/04/01 12:15:31;;;;;;;;;;;1.70;99.90;;;;;;5043134;28;19921;-72
2022/04/01 12:17:57;;;;;;;;;;;1.50;99.90;;;;;;5044866;28;19925;-72
2022/04/01 12:20:26;;;;;;;;;;;1.60;99.90;;;;;;5044848;28;19925;-72
2022/04/01 12:22:53;;;;;;;;;;;1.60;99.90;;;;;;5042987;28;19921;-72
2022/04/01 12:25:19;;;;;;;;;;;1.60;99.90;;;;;;5043587;28;19944;-71
2022/04/01 12:27:53;;;;;;;;;;;1.50;99.90;;;;;;5044081;28;19921;-72
2022/04/01 12:30:27;;;;;;;;;;;1.50;99.90;;;;;;5042228;28;19936;-72
2022/04/01 12:32:56;;;;;;;;;;;1.50;99.90;;;;;;5025236;28;19928;-71
2022/04/01 12:35:23;;;;;;;;;;;1.50;99.90;;;;;;5043922;28;19944;-72
2022/04/01 12:38:03;;;;;;;;;;;1.50;99.90;;;;;;5044208;28;19967;-72
2022/04/01 12:40:33;;;;;;;;;;;1.50;99.90;;;;;;5035443;28;19925;-72
2022/04/01 12:43:00;;;;;;;;;;;1.50;99.90;;;;;;5044026;28;20251;-72
2022/04/01 12:45:26;;;;;;;;;;;1.50;99.90;;;;;;5041064;28;19927;-72
2022/04/01 12:47:53;;;;;;;;;;;1.50;99.90;;;;;;5043670;28;20193;-72
2022/04/01 12:50:34;;;;;;;;;;;1.50;99.90;;;;;;5043783;28;19921;-72
2022/04/01 12:53:10;;;;;;;;;;;1.50;99.90;;;;;;5065136;22;19918;-70
2022/04/01 12:55:37;;;;;;;;;;;1.40;99.90;;;;;;5039653;28;19933;-72
2022/04/01 12:58:04;;;;;;;;;;;1.40;99.90;;;;;;5043336;28;19921;-70
2022/04/01 13:00:31;;;;;;;;;;;1.40;99.90;;;;;;5043743;28;20159;-69
2022/04/01 13:03:01;;;;;;;;;;;1.40;99.90;;;;;;5043443;28;20234;-70
2022/04/01 13:05:28;;;;;;;;;;;1.40;99.90;;;;;;5043210;28;19921;-70
2022/04/01 13:07:56;;;;;;;;;;;1.50;99.90;;;;;;5043384;28;19921;-70
2022/04/01 13:10:23;;;;;;;;;;;1.50;99.90;;;;;;5043561;28;19921;-69
2022/04/01 13:12:52;;;;;;;;;;;1.50;99.90;;;;;;5043275;28;19967;-70
2022/04/01 13:15:20;;;;;;;;;;;1.50;99.90;;;;;;5042833;28;19943;-70
2022/04/01 13:17:49;;;;;;;;;;;1.50;99.90;;;;;;5043991;28;19928;-70
2022/04/01 13:20:17;;;;;;;;;;;1.40;99.90;;;;;;5044037;28;19960;-70
2022/04/01 13:22:44;;;;;;;;;;;1.30;99.90;;;;;;5043911;28;19959;-70
2022/04/01 13:25:13;;;;;;;;;;;1.40;99.90;;;;;;5043342;28;20111;-70
2022/04/01 13:27:40;;;;;;;;;;;1.40;99.90;;;;;;5042698;28;20123;-70
2022/04/01 13:30:08;;;;;;;;;;;1.40;99.90;;;;;;5041146;28;20247;-71
2022/04/01 13:32:35;;;;;;;;;;;1.40;99.90;;;;;;5043035;28;19927;-69
2022/04/01 13:35:03;;;;;;;;;;;1.50;99.90;;;;;;5043217;28;20180;-71
2022/04/01 13:37:29;;;;;;;;;;;1.50;99.90;;;;;;5042125;28;19921;-70
2022/04/01 13:39:58;;;;;;;;;;;1.40;99.90;;;;;;5040542;28;19924;-70
2022/04/01 13:42:26;;;;;;;;;;;1.40;99.90;;;;;;5042844;28;19943;-69
2022/04/01 13:44:53;;;;;;;;;;;1.50;99.90;;;;;;5040806;28;19947;-69
2022/04/01 13:47:20;;;;;;;;;;;1.50;99.90;;;;;;5042511;28;19921;-71
2022/04/01 13:49:46;;;;;;;;;;;1.30;99.90;;;;;;5043153;28;20208;-68
2022/04/01 13:52:13;;;;;;;;;;;1.30;99.90;;;;;;5043493;28;19921;-69
2022/04/01 13:54:40;;;;;;;;;;;1.40;99.90;;;;;;5042491;28;19928;-69
2022/04/01 13:57:08;;;;;;;;;;;1.30;99.90;;;;;;5041583;28;19980;-69
2022/04/01 13:59:39;;;;;;;;;;;1.40;99.90;;;;;;5042725;28;19937;-69
2022/04/01 14:02:07;;;;;;;;;;;1.30;99.90;;;;;;5043168;28;19921;-69
2022/04/01 14:04:34;;;;;;;;;;;1.30;99.90;;;;;;5043161;28;19921;-69
2022/04/01 14:07:07;;;;;;;;;;;1.40;99.90;;;;;;5041890;28;20112;-69
2022/04/01 14:09:34;;;;;;;;;;;1.30;99.90;;;;;;5023196;28;19922;-69
2022/04/01 14:12:00;;;;;;;;;;;1.30;99.90;;;;;;5038862;28;19921;-69
2022/04/01 14:14:28;;;;;;;;;;;1.30;99.90;;;;;;5042158;28;19921;-69
2022/04/01 14:16:56;;;;;;;;;;;1.40;99.90;;;;;;5040254;28;19935;-70
2022/04/01 14:19:22;;;;;;;;;;;1.40;99.90;;;;;;5042469;28;19984;-68
2022/04/01 14:21:49;;;;;;;;;;;1.40;99.90;;;;;;5043392;28;20094;-68
2022/04/01 14:24:16;;;;;;;;;;;1.40;99.90;;;;;;5042757;28;19927;-68
2022/04/01 14:26:42;;;;;;;;;;;1.50;99.90;;;;;;5042700;28;19921;-69
2022/04/01 14:32:00;;;;;;;;;;;1.40;99.90;;;;;;5043048;28;19925;-69
2022/04/01 14:34:28;;;;;;;;;;;1.50;99.90;;;;;;5042577;28;20156;-67
2022/04/01 14:36:56;;;;;;;;;;;1.60;99.90;;;;;;5042509;28;19928;-68
2022/04/01 14:39:22;;;;;;;;;;;1.50;99.90;;;;;;5026369;28;19927;-69
2022/04/01 14:41:49;;;;;;;;;;;1.50;99.90;;;;;;5040459;28;19927;-70
2022/04/01 14:44:21;;;;;;;;;;;1.50;99.90;;;;;;5044041;28;19936;-69
2022/04/01 14:46:47;;;;;;;;;;;1.50;99.90;;;;;;5046111;28;19925;-69
2022/04/01 14:49:14;;;;;;;;;;;1.40;99.90;;;;;;5046629;28;20150;-69
2022/04/01 14:51:43;;;;;;;;;;;1.50;99.90;;;;;;5044992;28;19921;-69